Time;durP1;ratioP1;P1;durP2;ratioP2;P2;SDS_P1;SDS_P2;PMS_P1;PMS_P2;Temp;Humidity;BMP_temperature;BMP_pressure;BME280_temperature;BME280_humidity;BME280_pressure;Samples;Min_cycle;Max_cycle;Signal;HPM_P1;HPM_P2
2022/09/16 00:02:21;;;;;;;6.53;1.02;;;12.60;99.90;;;;;;4941731;28;20118;-60
2022/09/16 00:07:15;;;;;;;8.85;1.10;;;12.60;99.90;;;;;;5001180;28;20653;-62
2022/09/16 00:09:41;;;;;;;4.00;1.15;;;12.60;99.90;;;;;;5006357;28;20046;-62
2022/09/16 00:12:07;;;;;;;5.13;0.98;;;12.60;99.90;;;;;;4988141;28;20053;-62
2022/09/16 00:14:33;;;;;;;6.50;0.70;;;12.60;99.90;;;;;;5001461;28;20045;-62
2022/09/16 00:16:59;;;;;;;3.83;0.93;;;12.60;99.90;;;;;;4998609;28;20072;-62
2022/09/16 00:19:24;;;;;;;6.40;1.10;;;12.60;99.90;;;;;;5000200;28;20504;-62
2022/09/16 00:21:50;;;;;;;5.53;0.77;;;12.60;99.90;;;;;;4982627;28;21221;-63
2022/09/16 00:24:16;;;;;;;3.03;1.20;;;12.60;99.90;;;;;;4999924;28;20482;-62
2022/09/16 00:26:42;;;;;;;8.88;1.05;;;12.50;99.90;;;;;;4981082;28;20140;-63
2022/09/16 00:29:08;;;;;;;5.50;0.70;;;12.80;99.90;;;;;;4994975;28;20544;-62
2022/09/16 00:31:34;;;;;;;5.15;0.80;;;12.50;99.90;;;;;;5004994;28;20045;-62
2022/09/16 00:34:01;;;;;;;5.70;0.88;;;12.50;99.90;;;;;;4995786;28;20504;-62
2022/09/16 00:36:26;;;;;;;4.72;1.20;;;12.40;99.90;;;;;;4994091;28;20041;-63
2022/09/16 00:38:53;;;;;;;4.13;0.90;;;12.40;99.90;;;;;;4997930;28;20107;-62
2022/09/16 00:41:26;;;;;;;3.75;0.88;;;12.50;99.90;;;;;;4998504;28;20045;-62
2022/09/16 00:44:01;;;;;;;3.20;0.80;;;12.60;99.90;;;;;;4996990;28;20037;-62
2022/09/16 00:46:44;;;;;;;4.07;1.13;;;12.70;99.90;;;;;;4996777;28;20484;-62
2022/09/16 00:49:21;;;;;;;6.85;0.80;;;12.60;99.90;;;;;;4997171;28;20497;-62
2022/09/16 00:51:50;;;;;;;5.38;1.10;;;12.70;99.90;;;;;;4998639;28;20053;-62
2022/09/16 00:54:18;;;;;;;4.22;0.70;;;12.60;99.90;;;;;;4993640;28;20169;-63
2022/09/16 00:56:47;;;;;;;5.93;0.90;;;12.70;99.90;;;;;;4980292;28;20058;-62
2022/09/16 00:59:41;;;;;;;6.13;1.00;;;12.70;99.90;;;;;;4997687;28;20080;-63
2022/09/16 01:02:09;;;;;;;;;;;12.70;99.90;;;;;;4999096;28;20497;-62
2022/09/16 01:04:42;;;;;;;5.63;1.52;;;12.60;99.90;;;;;;4999141;28;20289;-62
2022/09/16 01:07:07;;;;;;;7.88;1.45;;;12.60;99.90;;;;;;4995410;28;20033;-62
2022/09/16 01:09:33;;;;;;;5.80;1.00;;;12.60;99.90;;;;;;4996440;28;20048;-63
2022/09/16 01:11:59;;;;;;;9.02;1.55;;;12.60;99.90;;;;;;5000621;28;20174;-61
2022/09/16 01:17:20;;;;;;;3.88;1.58;;;12.70;99.90;;;;;;4997719;28;20081;-62
2022/09/16 01:20:08;;;;;;;5.72;0.85;;;12.60;99.90;;;;;;4997387;28;20066;-62
2022/09/16 01:22:44;;;;;;;5.18;1.55;;;12.60;99.90;;;;;;4994348;28;20152;-62
2022/09/16 01:25:28;;;;;;;4.05;0.88;;;12.60;99.90;;;;;;5001788;28;20091;-63
2022/09/16 01:28:26;;;;;;;6.77;1.10;;;12.60;99.90;;;;;;4984060;28;20042;-62
2022/09/16 01:31:30;;;;;;;2.80;0.77;;;12.60;99.90;;;;;;4963319;28;20058;-63
2022/09/16 01:34:24;;;;;;;6.35;1.40;;;12.60;99.90;;;;;;4986156;28;20050;-62
2022/09/16 01:37:26;;;;;;;6.38;0.95;;;12.60;99.90;;;;;;5013254;28;20742;-62
2022/09/16 01:40:19;;;;;;;6.90;0.90;;;12.50;99.90;;;;;;4977247;28;22260;-62
2022/09/16 01:42:56;;;;;;;7.10;1.55;;;12.50;99.90;;;;;;4993116;28;20137;-62
2022/09/16 01:45:54;;;;;;;4.88;1.23;;;12.40;99.90;;;;;;4993281;28;20174;-62
2022/09/16 01:48:40;;;;;;;5.50;1.00;;;12.40;99.90;;;;;;5010937;28;20294;-62
2022/09/16 01:51:35;;;;;;;5.35;1.05;;;12.30;99.90;;;;;;4996870;28;20135;-62
2022/09/16 01:54:11;;;;;;;9.52;1.65;;;12.30;99.90;;;;;;4989586;28;20045;-62
2022/09/16 01:56:53;;;;;;;10.45;1.33;;;12.10;99.90;;;;;;5000586;28;20405;-62
2022/09/16 01:59:34;;;;;;;6.28;0.98;;;12.20;99.90;;;;;;4997441;28;20037;-62
2022/09/16 02:02:24;;;;;;;4.60;1.13;;;12.20;99.90;;;;;;5013069;28;20042;-62
2022/09/16 02:04:55;;;;;;;15.70;2.33;;;12.20;99.90;;;;;;4982819;28;20096;-62
2022/09/16 02:07:26;;;;;;;7.03;1.10;;;12.20;99.90;;;;;;5000386;28;20076;-63
2022/09/16 02:09:57;;;;;;;4.32;0.98;;;12.30;99.90;;;;;;4991904;28;20045;-63
2022/09/16 02:12:28;;;;;;;5.80;0.90;;;12.30;99.90;;;;;;4997419;28;20037;-63
2022/09/16 02:15:02;;;;;;;5.63;1.50;;;12.30;99.90;;;;;;4991765;28;20849;-63
2022/09/16 02:17:32;;;;;;;8.40;1.95;;;12.30;99.90;;;;;;4996961;28;20125;-62
2022/09/16 02:20:08;;;;;;;9.40;2.05;;;12.20;99.90;;;;;;4975488;28;20073;-62
2022/09/16 02:22:38;;;;;;;9.30;1.73;;;12.20;99.90;;;;;;4999719;28;20057;-63
2022/09/16 02:25:07;;;;;;;6.30;1.40;;;12.20;99.90;;;;;;4994443;28;20092;-63
2022/09/16 02:27:35;;;;;;;11.07;1.38;;;12.20;99.90;;;;;;4996542;28;20077;-63
2022/09/16 02:30:13;;;;;;;6.47;1.20;;;12.20;99.90;;;;;;4997929;28;20136;-63
2022/09/16 02:32:44;;;;;;;10.85;1.63;;;12.20;99.90;;;;;;4998256;28;20229;-63
2022/09/16 02:35:15;;;;;;;8.23;1.70;;;12.10;99.90;;;;;;4997832;28;20113;-63
2022/09/16 02:37:55;;;;;;;8.60;1.40;;;12.60;99.90;;;;;;4995425;28;20759;-63
2022/09/16 02:40:51;;;;;;;6.15;1.10;;;12.10;99.90;;;;;;4996435;28;20323;-63
2022/09/16 02:43:18;;;;;;;8.50;1.30;;;12.10;99.90;;;;;;4975877;28;20060;-63
2022/09/16 02:46:29;;;;;;;5.95;1.17;;;12.10;99.90;;;;;;4998283;28;20080;-63
2022/09/16 02:48:57;;;;;;;8.10;1.35;;;12.10;99.90;;;;;;4974889;28;20064;-62
2022/09/16 02:51:29;;;;;;;7.90;1.40;;;12.10;99.90;;;;;;4994669;28;20188;-63
2022/09/16 02:54:09;;;;;;;11.63;1.65;;;12.10;99.90;;;;;;4992891;28;20068;-62
2022/09/16 02:56:38;;;;;;;9.85;1.25;;;12.20;99.90;;;;;;4978073;28;20089;-62
2022/09/16 02:59:05;;;;;;;12.57;1.55;;;12.10;99.90;;;;;;5001864;28;20048;-63
2022/09/16 03:01:35;;;;;;;6.97;1.83;;;12.10;99.90;;;;;;5003305;28;20038;-62
2022/09/16 03:04:02;;;;;;;8.68;1.13;;;12.10;99.90;;;;;;4999798;28;20033;-62
2022/09/16 03:06:28;;;;;;;11.15;1.65;;;12.10;99.90;;;;;;5000372;28;20046;-62
2022/09/16 03:08:59;;;;;;;9.10;1.08;;;12.10;99.90;;;;;;4986425;28;20045;-62
2022/09/16 03:11:30;;;;;;;13.18;1.65;;;12.10;99.90;;;;;;5008258;28;20221;-63
2022/09/16 03:14:14;;;;;;;6.45;1.20;;;12.10;99.90;;;;;;4999305;28;20026;-62
2022/09/16 03:16:59;;;;;;;7.45;1.33;;;12.10;99.90;;;;;;4999076;28;20046;-63
2022/09/16 03:19:46;;;;;;;10.15;1.50;;;12.10;99.90;;;;;;5000239;28;20054;-62
2022/09/16 03:22:41;;;;;;;7.47;1.10;;;12.10;99.90;;;;;;5000590;28;20096;-62
2022/09/16 03:25:21;;;;;;;12.50;2.22;;;12.00;99.90;;;;;;4919193;28;20052;-63
2022/09/16 03:28:18;;;;;;;17.27;3.30;;;12.10;99.90;;;;;;5000908;28;20045;-63
2022/09/16 03:30:54;;;;;;;14.77;2.03;;;12.10;99.90;;;;;;4994737;28;20276;-63
2022/09/16 03:33:47;;;;;;;10.15;1.90;;;12.20;99.90;;;;;;5000613;28;20056;-63
2022/09/16 03:36:17;;;;;;;9.82;1.88;;;12.20;99.90;;;;;;4993770;28;20136;-63
2022/09/16 03:38:44;;;;;;;8.90;2.05;;;12.20;99.90;;;;;;4996686;28;20038;-63
2022/09/16 03:41:10;;;;;;;10.38;2.40;;;12.20;99.90;;;;;;4990687;28;20050;-63
2022/09/16 03:43:36;;;;;;;7.97;1.40;;;12.20;99.90;;;;;;4994569;28;20038;-63
2022/09/16 03:46:02;;;;;;;9.02;2.15;;;12.20;99.90;;;;;;5002949;28;20416;-63
2022/09/16 03:48:27;;;;;;;9.93;1.30;;;12.20;99.90;;;;;;4989301;28;20117;-63
2022/09/16 03:50:53;;;;;;;9.38;1.77;;;12.20;99.90;;;;;;5002182;28;20188;-63
2022/09/16 03:53:19;;;;;;;7.55;1.63;;;12.20;99.90;;;;;;4998392;28;20079;-63
2022/09/16 03:55:48;;;;;;;9.32;1.45;;;12.20;99.90;;;;;;4993169;28;20164;-63
2022/09/16 03:58:14;;;;;;;15.25;1.83;;;12.20;99.90;;;;;;4996842;28;20409;-63
2022/09/16 04:00:40;;;;;;;9.57;1.92;;;12.20;99.90;;;;;;5000240;28;20034;-63
2022/09/16 04:03:05;;;;;;;8.07;2.10;;;12.20;99.90;;;;;;5000384;28;20061;-62
2022/09/16 04:05:31;;;;;;;11.20;2.25;;;12.30;99.90;;;;;;4997470;28;20088;-63
2022/09/16 04:07:57;;;;;;;10.18;2.05;;;12.20;99.90;;;;;;4995184;28;20037;-63
2022/09/16 04:10:22;;;;;;;13.48;1.92;;;12.10;99.90;;;;;;4998335;28;20084;-63
2022/09/16 04:12:48;;;;;;;7.95;1.52;;;12.20;99.90;;;;;;4999083;28;20041;-63
2022/09/16 04:15:14;;;;;;;11.02;1.90;;;12.10;99.90;;;;;;4984741;28;20456;-63
2022/09/16 04:17:40;;;;;;;12.38;2.28;;;12.10;99.90;;;;;;4993793;28;20481;-62
2022/09/16 04:20:07;;;;;;;7.85;1.48;;;12.10;99.90;;;;;;4995516;28;20050;-62
2022/09/16 04:22:33;;;;;;;10.52;1.52;;;12.00;99.90;;;;;;4995442;28;20049;-62
2022/09/16 04:24:58;;;;;;;9.35;1.95;;;12.00;99.90;;;;;;4993049;28;20038;-63
2022/09/16 04:27:24;;;;;;;10.20;1.50;;;12.00;99.90;;;;;;4994094;28;20041;-63
2022/09/16 04:29:50;;;;;;;13.68;2.03;;;11.90;99.90;;;;;;4996283;28;20092;-63
2022/09/16 04:32:16;;;;;;;8.27;1.83;;;12.00;99.90;;;;;;4996596;28;20065;-63
2022/09/16 04:34:42;;;;;;;7.40;1.30;;;11.90;99.90;;;;;;4985545;28;20097;-63
2022/09/16 04:37:07;;;;;;;10.70;1.77;;;11.90;99.90;;;;;;5000947;28;20222;-63
2022/09/16 04:39:33;;;;;;;6.60;1.77;;;11.90;99.90;;;;;;4978423;28;20107;-63
2022/09/16 04:41:59;;;;;;;10.23;1.90;;;11.90;99.90;;;;;;4997283;28;20048;-63
2022/09/16 04:44:26;;;;;;;13.07;2.00;;;11.90;99.90;;;;;;4994702;28;20041;-62
2022/09/16 04:46:52;;;;;;;7.22;1.58;;;11.90;99.90;;;;;;4996191;28;20049;-63
2022/09/16 04:49:17;;;;;;;8.43;1.65;;;11.90;99.90;;;;;;4998879;28;20046;-62
2022/09/16 04:51:43;;;;;;;7.40;1.23;;;11.80;99.90;;;;;;4993588;28;21617;-63
2022/09/16 04:54:11;;;;;;;9.05;1.85;;;11.80;99.90;;;;;;4983383;28;20408;-63
2022/09/16 04:56:37;;;;;;;8.10;1.40;;;11.80;99.90;;;;;;4991105;28;20042;-62
2022/09/16 04:59:04;;;;;;;8.32;1.85;;;11.80;99.90;;;;;;4992226;28;20540;-63
2022/09/16 05:01:35;;;;;;;12.70;1.48;;;11.70;99.90;;;;;;4995911;28;20054;-63
2022/09/16 05:04:04;;;;;;;9.38;1.50;;;11.70;99.90;;;;;;5001384;28;20120;-63
2022/09/16 05:06:33;;;;;;;5.18;1.35;;;11.60;99.90;;;;;;4995286;28;20070;-63
2022/09/16 05:08:59;;;;;;;11.70;1.45;;;11.60;99.90;;;;;;5000644;28;20037;-63
2022/09/16 05:11:28;;;;;;;16.05;1.95;;;11.50;99.90;;;;;;4994277;28;20096;-63
2022/09/16 05:13:57;;;;;;;11.98;1.60;;;11.50;99.90;;;;;;4996538;28;20039;-63
2022/09/16 05:16:23;;;;;;;8.25;1.50;;;11.50;99.90;;;;;;4991171;28;20050;-63
2022/09/16 05:18:52;;;;;;;17.20;2.75;;;11.60;99.90;;;;;;4984889;28;20037;-62
2022/09/16 05:21:20;;;;;;;14.20;2.05;;;11.70;99.90;;;;;;4992078;28;20413;-63
2022/09/16 05:23:46;;;;;;;7.47;1.55;;;11.70;99.90;;;;;;4993283;28;20077;-63
2022/09/16 05:26:15;;;;;;;12.75;1.88;;;11.80;99.90;;;;;;4989948;28;20054;-63
2022/09/16 05:28:42;;;;;;;9.02;1.70;;;11.80;99.90;;;;;;5009004;28;20113;-63
2022/09/16 05:31:15;;;;;;;9.50;1.50;;;11.90;99.90;;;;;;4996215;28;20120;-62
2022/09/16 05:33:46;;;;;;;11.07;2.50;;;11.90;99.90;;;;;;4995523;28;20057;-62
2022/09/16 05:36:14;;;;;;;7.55;2.45;;;12.00;99.90;;;;;;4977490;28;20049;-63
2022/09/16 05:38:40;;;;;;;10.38;3.17;;;12.00;99.90;;;;;;5009363;28;20049;-62
2022/09/16 05:41:06;;;;;;;11.77;2.85;;;12.00;99.90;;;;;;4991958;28;20046;-62
2022/09/16 05:43:33;;;;;;;8.68;2.97;;;11.90;99.90;;;;;;4997855;28;20045;-62
2022/09/16 05:46:00;;;;;;;11.07;2.15;;;11.90;99.90;;;;;;4994497;28;20038;-63
2022/09/16 05:48:26;;;;;;;10.93;1.98;;;11.90;99.90;;;;;;4999851;28;20038;-62
2022/09/16 05:50:56;;;;;;;6.13;1.30;;;11.90;99.90;;;;;;4996480;28;20569;-63
2022/09/16 05:53:24;;;;;;;8.35;1.20;;;11.90;99.90;;;;;;4998438;28;20155;-63
2022/09/16 05:55:56;;;;;;;6.95;1.48;;;11.90;99.90;;;;;;4991951;28;20061;-62
2022/09/16 05:58:23;;;;;;;12.13;2.27;;;12.00;99.90;;;;;;5001800;28;20116;-63
2022/09/16 06:00:49;;;;;;;9.38;1.75;;;12.00;99.90;;;;;;4992539;28;20057;-62
2022/09/16 06:03:15;;;;;;;9.45;1.63;;;12.00;99.90;;;;;;4996448;28;20116;-63
2022/09/16 06:05:41;;;;;;;7.68;2.33;;;12.00;99.90;;;;;;5010761;28;20453;-63
2022/09/16 06:08:06;;;;;;;10.85;3.40;;;12.00;99.90;;;;;;5015967;23;20046;-61
2022/09/16 06:10:37;;;;;;;15.95;2.10;;;12.00;99.90;;;;;;5015713;28;20041;-61
2022/09/16 06:13:03;;;;;;;8.50;1.40;;;12.20;99.90;;;;;;5016550;28;20196;-61
2022/09/16 06:15:28;;;;;;;15.60;1.67;;;12.40;99.90;;;;;;5019301;28;20567;-61
2022/09/16 06:17:54;;;;;;;11.38;1.98;;;12.50;99.90;;;;;;5015100;28;20045;-61
2022/09/16 06:20:20;;;;;;;17.67;2.78;;;12.50;99.90;;;;;;5011044;28;20041;-61
2022/09/16 06:22:45;;;;;;;16.00;2.05;;;12.50;99.90;;;;;;5011126;28;20282;-61
2022/09/16 06:25:11;;;;;;;18.73;2.33;;;12.60;99.90;;;;;;5014618;28;20562;-61
2022/09/16 06:27:37;;;;;;;11.88;2.30;;;12.50;99.90;;;;;;5012208;28;20571;-61
2022/09/16 06:30:03;;;;;;;9.07;2.22;;;12.50;99.90;;;;;;4996929;28;21011;-61
2022/09/16 06:32:32;;;;;;;8.63;2.13;;;12.50;99.90;;;;;;5015175;28;20554;-61
2022/09/16 06:34:58;;;;;;;15.52;3.33;;;12.60;99.90;;;;;;5020271;28;20130;-61
2022/09/16 06:37:24;;;;;;;16.33;2.67;;;12.50;99.90;;;;;;5014899;28;20487;-61
2022/09/16 06:39:50;;;;;;;9.18;2.10;;;12.60;99.90;;;;;;5016096;28;20037;-61
2022/09/16 06:42:16;;;;;;;16.67;2.38;;;12.70;99.90;;;;;;5017504;28;20056;-61
2022/09/16 06:44:42;;;;;;;12.45;2.10;;;12.80;99.90;;;;;;5011084;28;20049;-61
2022/09/16 06:47:08;;;;;;;15.68;2.53;;;12.90;99.90;;;;;;5019603;28;20185;-61
2022/09/16 06:49:33;;;;;;;16.20;2.10;;;13.00;99.90;;;;;;5015773;28;20076;-61
2022/09/16 06:51:59;;;;;;;13.82;2.10;;;13.10;99.90;;;;;;5019305;28;20041;-61
2022/09/16 06:54:25;;;;;;;10.73;1.77;;;13.20;99.90;;;;;;5018811;28;20033;-61
2022/09/16 06:56:50;;;;;;;12.38;2.20;;;13.30;99.90;;;;;;5020514;28;20519;-61
2022/09/16 06:59:16;;;;;;;10.82;2.03;;;13.50;99.90;;;;;;5017749;28;20045;-59
2022/09/16 07:01:42;;;;;;;13.32;2.38;;;13.50;99.90;;;;;;5016413;28;20128;-61
2022/09/16 07:04:11;;;;;;;12.93;2.10;;;13.70;99.90;;;;;;5018942;28;20041;-61
2022/09/16 07:06:38;;;;;;;12.80;1.95;;;13.80;99.90;;;;;;5014194;28;20071;-61
2022/09/16 07:09:05;;;;;;;10.30;1.65;;;13.90;99.90;;;;;;5017345;28;20391;-61
2022/09/16 07:11:31;;;;;;;11.75;1.63;;;13.90;99.90;;;;;;5013433;28;20072;-61
2022/09/16 07:13:59;;;;;;;10.10;2.20;;;13.90;99.90;;;;;;5024898;28;20072;-61
2022/09/16 07:16:25;;;;;;;14.27;1.85;;;13.80;99.90;;;;;;5027448;28;20044;-60
2022/09/16 07:18:53;;;;;;;15.48;1.80;;;13.80;99.90;;;;;;5025391;28;20789;-59
2022/09/16 07:21:20;;;;;;;11.82;2.60;;;13.70;99.90;;;;;;5025124;28;20043;-59
2022/09/16 07:23:47;;;;;;;8.18;2.08;;;13.70;99.90;;;;;;5018975;28;20588;-60
2022/09/16 07:26:25;;;;;;;11.63;2.40;;;13.60;99.90;;;;;;5020524;28;20042;-60
2022/09/16 07:28:51;;;;;;;11.73;1.70;;;13.60;99.90;;;;;;5018097;28;20041;-60
2022/09/16 07:31:20;;;;;;;14.50;2.47;;;13.80;99.90;;;;;;5025325;28;20046;-61
2022/09/16 07:33:48;;;;;;;10.02;2.22;;;13.90;99.90;;;;;;5022164;28;20076;-61
2022/09/16 07:36:17;;;;;;;10.63;2.17;;;14.00;99.90;;;;;;5019768;28;20045;-59
2022/09/16 07:38:43;;;;;;;12.73;2.20;;;14.10;99.90;;;;;;5019684;28;20037;-60
2022/09/16 07:41:17;;;;;;;7.53;1.75;;;14.30;99.90;;;;;;5001354;28;20120;-61
2022/09/16 07:43:44;;;;;;;10.00;2.35;;;14.30;99.90;;;;;;5016063;28;20041;-61
2022/09/16 07:46:11;;;;;;;10.65;2.05;;;14.30;99.90;;;;;;5017188;28;20046;-62
2022/09/16 07:48:38;;;;;;;10.77;2.30;;;14.10;99.90;;;;;;5017403;28;20041;-61
2022/09/16 07:51:07;;;;;;;13.48;2.33;;;13.90;99.90;;;;;;5023505;28;20099;-61
2022/09/16 07:53:33;;;;;;;18.73;3.10;;;13.70;99.90;;;;;;5017171;28;20080;-61
2022/09/16 07:56:11;;;;;;;16.88;2.58;;;13.70;99.90;;;;;;5017310;28;20092;-61
2022/09/16 07:58:38;;;;;;;15.50;2.72;;;13.60;99.90;;;;;;5009667;28;20092;-60
2022/09/16 08:01:06;;;;;;;15.20;2.88;;;13.50;99.90;;;;;;5011641;28;20056;-61
2022/09/16 08:03:33;;;;;;;16.52;2.58;;;13.70;99.90;;;;;;5017396;28;20520;-62
2022/09/16 08:06:04;;;;;;;11.40;2.92;;;13.70;99.90;;;;;;5020575;28;20523;-61
2022/09/16 08:08:30;;;;;;;16.27;2.88;;;13.90;99.90;;;;;;5021603;28;20492;-61
2022/09/16 08:10:57;;;;;;;13.45;2.65;;;14.00;99.90;;;;;;5019048;28;20050;-61
2022/09/16 08:13:23;;;;;;;12.55;2.20;;;14.20;99.90;;;;;;5024134;28;20152;-61
2022/09/16 08:15:49;;;;;;;9.95;2.28;;;14.30;99.90;;;;;;5019258;28;20518;-62
2022/09/16 08:18:15;;;;;;;11.18;1.98;;;14.50;99.90;;;;;;5017366;28;20041;-62
2022/09/16 08:20:41;;;;;;;12.40;2.00;;;14.60;99.90;;;;;;5015499;28;20057;-60
2022/09/16 08:23:10;;;;;;;10.63;1.58;;;14.70;98.50;;;;;;5015077;28;20083;-61
2022/09/16 08:25:35;;;;;;;9.40;1.63;;;14.80;98.50;;;;;;5015597;28;20052;-62
2022/09/16 08:28:03;;;;;;;11.45;2.03;;;14.90;99.00;;;;;;5016614;28;20152;-61
2022/09/16 08:30:28;;;;;;;10.10;1.58;;;15.00;97.80;;;;;;5011422;28;20879;-61
2022/09/16 08:32:58;;;;;;;12.93;1.95;;;15.00;97.30;;;;;;5016966;28;20045;-62
2022/09/16 08:35:25;;;;;;;9.75;1.65;;;15.10;97.50;;;;;;5015275;28;20067;-61
2022/09/16 08:37:52;;;;;;;5.70;1.60;;;15.20;97.10;;;;;;5018820;28;20042;-61
2022/09/16 08:40:22;;;;;;;9.10;2.00;;;15.30;97.10;;;;;;5019685;28;20042;-61
2022/09/16 08:43:06;;;;;;;12.38;2.08;;;15.30;96.80;;;;;;4999951;28;20115;-60
2022/09/16 08:46:02;;;;;;;8.93;1.95;;;15.40;96.90;;;;;;5020182;28;20033;-60
2022/09/16 08:48:27;;;;;;;8.90;1.70;;;15.50;97.30;;;;;;5020412;28;20046;-62
2022/09/16 08:50:54;;;;;;;12.02;1.88;;;15.50;97.00;;;;;;5013530;28;20045;-65
2022/09/16 08:53:44;;;;;;;10.02;2.17;;;15.50;96.50;;;;;;5017548;28;20034;-63
2022/09/16 08:56:14;;;;;;;15.82;2.28;;;15.60;96.30;;;;;;4987352;28;20392;-65
2022/09/16 08:58:53;;;;;;;7.43;1.83;;;15.70;96.40;;;;;;5016920;28;20053;-61
2022/09/16 09:01:31;;;;;;;6.13;1.50;;;15.80;94.20;;;;;;5020887;28;20370;-61
2022/09/16 09:03:57;;;;;;;6.30;1.17;;;15.90;93.50;;;;;;5004718;28;20563;-60
2022/09/16 09:06:48;;;;;;;7.93;1.92;;;16.00;94.30;;;;;;5011628;28;20544;-60
2022/09/16 09:09:26;;;;;;;6.97;1.67;;;16.00;92.70;;;;;;5012893;28;20509;-61
2022/09/16 09:12:09;;;;;;;13.63;1.85;;;16.00;92.50;;;;;;5014506;28;20041;-61
2022/09/16 09:14:34;;;;;;;13.77;1.73;;;16.00;93.70;;;;;;5015446;28;20048;-59
2022/09/16 09:17:37;;;;;;;14.45;2.33;;;16.10;94.40;;;;;;5014123;28;20387;-60
2022/09/16 09:20:06;;;;;;;12.38;2.20;;;16.00;94.60;;;;;;5013778;28;20682;-61
2022/09/16 09:22:53;;;;;;;13.52;2.50;;;16.00;95.20;;;;;;5018980;28;20046;-61
2022/09/16 09:25:50;;;;;;;12.32;2.40;;;16.10;95.00;;;;;;5013903;28;20045;-61
2022/09/16 09:28:34;;;;;;;11.57;2.08;;;16.30;95.40;;;;;;4983859;28;20061;-59
2022/09/16 09:31:39;;;;;;;8.73;2.05;;;16.30;94.90;;;;;;5022448;28;20163;-61
2022/09/16 09:34:30;;;;;;;11.00;2.08;;;16.40;94.60;;;;;;5019109;28;20112;-61
2022/09/16 09:37:16;;;;;;;9.50;2.20;;;16.20;93.30;;;;;;5022299;28;20045;-61
2022/09/16 09:40:12;;;;;;;7.43;1.90;;;16.00;94.10;;;;;;5018744;28;20044;-62
2022/09/16 09:42:41;;;;;;;10.73;2.08;;;15.90;94.50;;;;;;5015992;28;20045;-60
2022/09/16 09:45:25;;;;;;;8.63;2.05;;;16.00;94.60;;;;;;5009955;28;20056;-59
2022/09/16 09:48:15;;;;;;;11.25;1.58;;;16.10;94.20;;;;;;5012713;28;20033;-60
2022/09/16 09:50:46;;;;;;;9.75;2.15;;;16.20;94.70;;;;;;5008517;28;20053;-61
2022/09/16 09:53:28;;;;;;;10.65;1.88;;;16.30;94.00;;;;;;5020011;28;20593;-59
2022/09/16 09:56:03;;;;;;;11.70;2.03;;;16.30;94.10;;;;;;5008934;28;20041;-60
2022/09/16 09:58:45;;;;;;;9.55;1.80;;;16.40;94.10;;;;;;5006125;28;20280;-61
2022/09/16 10:01:11;;;;;;;8.25;1.80;;;16.30;92.60;;;;;;5005652;28;20037;-60
2022/09/16 10:03:39;;;;;;;9.18;1.58;;;16.30;93.20;;;;;;5019277;28;20549;-60
2022/09/16 10:06:05;;;;;;;10.45;1.80;;;16.50;93.70;;;;;;5012324;28;21025;-60
2022/09/16 10:08:50;;;;;;;8.55;1.48;;;16.60;93.70;;;;;;5011660;28;20025;-61
2022/09/16 10:11:19;;;;;;;8.90;1.58;;;16.40;94.00;;;;;;5016237;28;20045;-61
2022/09/16 10:13:54;;;;;;;10.23;1.60;;;16.30;93.00;;;;;;5008093;28;20060;-59
2022/09/16 10:16:33;;;;;;;13.43;1.80;;;16.40;93.50;;;;;;5012240;28;20052;-59
2022/09/16 10:19:04;;;;;;;10.88;2.13;;;16.40;94.20;;;;;;5012367;28;21651;-60
2022/09/16 10:21:49;;;;;;;9.10;2.03;;;16.10;94.00;;;;;;5012614;28;20038;-61
2022/09/16 10:24:30;;;;;;;10.15;1.70;;;16.20;94.40;;;;;;5009320;28;20185;-61
2022/09/16 10:26:56;;;;;;;8.63;1.38;;;16.40;94.60;;;;;;5006046;28;20030;-61
2022/09/16 10:29:22;;;;;;;8.98;2.08;;;16.60;93.80;;;;;;5015079;28;20045;-61
2022/09/16 10:31:48;;;;;;;13.32;2.47;;;16.50;92.70;;;;;;5010698;28;20117;-61
2022/09/16 10:34:47;;;;;;;11.40;2.15;;;16.60;93.30;;;;;;5007065;28;22242;-60
2022/09/16 10:37:15;;;;;;;11.07;2.10;;;16.40;93.80;;;;;;4983674;28;20467;-59
2022/09/16 10:39:45;;;;;;;9.15;2.25;;;16.50;94.40;;;;;;5017792;28;20135;-59
2022/09/16 10:42:25;;;;;;;8.85;2.60;;;16.50;94.80;;;;;;5015526;28;20100;-59
2022/09/16 10:45:02;;;;;;;10.57;1.50;;;16.50;93.20;;;;;;5019021;28;20073;-61
2022/09/16 10:47:31;;;;;;;7.10;1.50;;;16.60;93.60;;;;;;5017551;28;20117;-60
2022/09/16 10:50:04;;;;;;;10.95;2.28;;;16.70;93.90;;;;;;5013446;28;20033;-61
2022/09/16 10:52:39;;;;;;;13.73;2.38;;;16.60;94.20;;;;;;5027375;28;20041;-59
2022/09/16 10:55:28;;;;;;;9.40;1.83;;;16.10;94.70;;;;;;5014092;28;20065;-60
2022/09/16 10:58:07;;;;;;;11.75;2.45;;;15.80;95.60;;;;;;5012213;28;20142;-60
2022/09/16 11:00:49;;;;;;;9.32;1.90;;;15.50;96.50;;;;;;5015970;28;20065;-60
2022/09/16 11:03:27;;;;;;;10.43;2.53;;;15.80;96.70;;;;;;5017037;28;20057;-60
2022/09/16 11:06:37;;;;;;;10.52;1.90;;;16.10;96.30;;;;;;5012186;28;20052;-59
2022/09/16 11:09:09;;;;;;;8.20;1.92;;;16.60;95.80;;;;;;4986403;28;20055;-59
2022/09/16 11:11:38;;;;;;;12.80;2.08;;;16.90;94.50;;;;;;5027045;28;20041;-61
2022/09/16 11:14:16;;;;;;;10.85;2.15;;;17.20;94.10;;;;;;5010916;28;20042;-61
2022/09/16 11:17:05;;;;;;;8.40;1.55;;;17.30;93.40;;;;;;5017422;28;20062;-61
2022/09/16 11:19:53;;;;;;;12.02;2.10;;;17.30;93.90;;;;;;5015521;28;20553;-60
2022/09/16 11:22:37;;;;;;;10.40;2.17;;;16.80;95.40;;;;;;5010429;28;20045;-61
2022/09/16 11:25:23;;;;;;;;;;;16.30;95.70;;;;;;5022103;28;20066;-61
2022/09/16 11:28:23;;;;;;;13.93;2.13;;;16.00;95.20;;;;;;5016595;28;19917;-61
2022/09/16 11:31:06;;;;;;;18.58;1.90;;;16.30;93.70;;;;;;4988875;28;20110;-59
2022/09/16 11:33:43;;;;;;;5.82;1.80;;;16.50;92.70;;;;;;5021525;28;20388;-61
2022/09/16 11:36:36;;;;;;;8.00;2.67;;;16.70;93.40;;;;;;5020817;28;20041;-60
2022/09/16 11:39:37;;;;;;;14.55;2.70;;;16.90;92.90;;;;;;5016118;28;20064;-60
2022/09/16 11:42:24;;;;;;;16.67;2.60;;;16.80;93.00;;;;;;5019836;28;20057;-61
2022/09/16 11:44:58;;;;;;;8.95;1.90;;;16.60;93.30;;;;;;5014587;28;20695;-59
2022/09/16 11:47:33;;;;;;;10.73;2.55;;;16.50;93.70;;;;;;5015411;28;20121;-61
2022/09/16 11:50:11;;;;;;;11.02;2.67;;;16.40;94.10;;;;;;5011745;28;20599;-61
2022/09/16 11:52:48;;;;;;;16.35;2.70;;;16.50;93.20;;;;;;5019116;28;20045;-60
2022/09/16 11:55:29;;;;;;;13.00;2.75;;;16.60;92.10;;;;;;5034268;28;20660;-61
2022/09/16 11:58:03;;;;;;;12.35;2.65;;;16.80;92.20;;;;;;5013561;28;20053;-61
2022/09/16 12:00:31;;;;;;;16.45;3.83;;;16.60;92.80;;;;;;5017628;28;20641;-60
2022/09/16 12:03:17;;;;;;;14.90;3.08;;;16.50;94.00;;;;;;5017226;28;20509;-60
2022/09/16 12:05:52;;;;;;;10.40;2.53;;;16.50;94.40;;;;;;5020488;28;20037;-60
2022/09/16 12:08:41;;;;;;;15.77;2.80;;;16.60;94.50;;;;;;5063036;23;20060;-80
2022/09/16 12:11:35;;;;;;;14.52;2.67;;;16.60;92.70;;;;;;5027504;28;20049;-79
2022/09/16 12:14:16;;;;;;;11.50;2.10;;;16.70;92.70;;;;;;5024756;28;20053;-80
2022/09/16 12:17:11;;;;;;;16.33;3.13;;;16.70;92.20;;;;;;5016397;28;20045;-80
2022/09/16 12:19:51;;;;;;;15.88;2.88;;;16.90;92.70;;;;;;5022995;28;20543;-80
2022/09/16 12:22:29;;;;;;;14.95;3.95;;;16.90;92.50;;;;;;5019831;28;20046;-80
2022/09/16 12:25:02;;;;;;;18.42;3.33;;;17.00;93.00;;;;;;5024030;28;20647;-80
2022/09/16 12:27:37;;;;;;;15.63;2.55;;;17.00;92.70;;;;;;5014409;28;20035;-80
2022/09/16 12:30:14;;;;;;;10.43;2.50;;;16.80;93.40;;;;;;5022746;28;20042;-80
2022/09/16 12:32:56;;;;;;;18.48;3.53;;;16.80;93.30;;;;;;5011350;28;20110;-79
2022/09/16 12:35:53;;;;;;;18.20;3.08;;;16.70;93.60;;;;;;5012424;28;20069;-80
2022/09/16 12:38:20;;;;;;;14.63;2.92;;;16.50;94.10;;;;;;5016741;28;20069;-80
2022/09/16 12:40:58;;;;;;;13.23;2.88;;;16.60;94.90;;;;;;5012732;28;20048;-80
2022/09/16 12:43:35;;;;;;;15.23;2.95;;;16.30;96.40;;;;;;5021532;28;20061;-80
2022/09/16 12:46:23;;;;;;;13.73;3.13;;;16.00;97.40;;;;;;5022296;28;20044;-80
2022/09/16 12:49:02;;;;;;;10.18;2.72;;;15.90;98.10;;;;;;5015583;28;20042;-80
2022/09/16 12:51:58;;;;;;;14.93;2.28;;;15.90;97.80;;;;;;5014884;28;20065;-80
2022/09/16 12:55:07;;;;;;;9.38;2.28;;;16.10;97.60;;;;;;5026848;28;20517;-79
2022/09/16 12:57:54;;;;;;;8.43;2.25;;;16.10;96.80;;;;;;4977823;28;20558;-79
2022/09/16 13:00:21;;;;;;;12.75;2.13;;;16.00;96.20;;;;;;5022519;28;21503;-80
2022/09/16 13:02:56;;;;;;;12.00;2.38;;;16.10;96.40;;;;;;4994211;28;20052;-79
2022/09/16 13:05:32;;;;;;;12.75;2.90;;;16.40;96.70;;;;;;5008941;28;20093;-79
2022/09/16 13:08:03;;;;;;;16.30;2.35;;;16.50;96.00;;;;;;5000735;28;20046;-79
2022/09/16 13:10:33;;;;;;;11.68;2.58;;;16.40;95.50;;;;;;5007838;28;20322;-79
2022/09/16 13:13:02;;;;;;;8.88;2.70;;;16.30;95.40;;;;;;4989292;28;20041;-79
2022/09/16 13:15:32;;;;;;;12.70;2.58;;;16.10;96.10;;;;;;5004902;28;20042;-79
2022/09/16 13:18:08;;;;;;;13.25;2.25;;;15.50;98.50;;;;;;4996787;28;20037;-80
2022/09/16 13:20:41;;;;;;;20.45;3.00;;;15.20;99.80;;;;;;5006956;28;20081;-79
2022/09/16 13:23:21;;;;;;;15.15;3.67;;;15.10;99.90;;;;;;4994961;28;20064;-80